sensor_id;sensor_type;location;lat;lon;timestamp;pressure;altitude;pressure_sealevel;temperature;humidity
71996;BME280;59862;47.732;7.346;2023-03-30T00:01:04;97791.24;;;14.64;56.15
71996;BME280;59862;47.732;7.346;2023-03-30T00:03:34;97790.16;;;14.71;57.09
71996;BME280;59862;47.732;7.346;2023-03-30T00:06:04;97794.56;;;14.81;56.56
71996;BME280;59862;47.732;7.346;2023-03-30T00:08:32;97796.91;;;14.93;56.54
71996;BME280;59862;47.732;7.346;2023-03-30T00:11:07;97797.33;;;14.90;56.99
71996;BME280;59862;47.732;7.346;2023-03-30T00:13:32;97793.63;;;14.85;57.34
71996;BME280;59862;47.732;7.346;2023-03-30T00:15:59;97801.86;;;14.81;57.32
71996;BME280;59862;47.732;7.346;2023-03-30T00:18:27;97796.88;;;14.78;57.86
71996;BME280;59862;47.732;7.346;2023-03-30T00:20:59;97791.98;;;14.77;57.13
71996;BME280;59862;47.732;7.346;2023-03-30T00:23:30;97790.50;;;14.66;57.55
71996;BME280;59862;47.732;7.346;2023-03-30T00:25:58;97796.55;;;14.61;57.19
71996;BME280;59862;47.732;7.346;2023-03-30T00:28:26;97806.06;;;14.70;56.13
71996;BME280;59862;47.732;7.346;2023-03-30T00:30:56;97800.03;;;14.75;55.33
71996;BME280;59862;47.732;7.346;2023-03-30T00:33:23;97790.13;;;14.78;57.10
71996;BME280;59862;47.732;7.346;2023-03-30T00:35:55;97794.20;;;14.71;57.58
71996;BME280;59862;47.732;7.346;2023-03-30T00:38:24;97786.16;;;14.58;60.92
71996;BME280;59862;47.732;7.346;2023-03-30T00:40:57;97771.97;;;14.47;62.02
71996;BME280;59862;47.732;7.346;2023-03-30T00:43:26;97779.07;;;14.28;63.88
71996;BME280;59862;47.732;7.346;2023-03-30T00:45:56;97776.47;;;13.69;66.49
71996;BME280;59862;47.732;7.346;2023-03-30T00:48:32;97775.02;;;13.60;67.76
71996;BME280;59862;47.732;7.346;2023-03-30T00:51:06;97775.55;;;13.34;69.03
71996;BME280;59862;47.732;7.346;2023-03-30T00:53:41;97771.39;;;13.31;67.59
71996;BME280;59862;47.732;7.346;2023-03-30T00:56:11;97780.61;;;13.33;68.63
71996;BME280;59862;47.732;7.346;2023-03-30T00:58:40;97787.45;;;13.35;65.84
71996;BME280;59862;47.732;7.346;2023-03-30T01:01:12;97794.70;;;13.41;65.84
71996;BME280;59862;47.732;7.346;2023-03-30T01:03:43;97798.65;;;13.45;64.30
71996;BME280;59862;47.732;7.346;2023-03-30T01:06:12;97805.71;;;13.46;63.88
71996;BME280;59862;47.732;7.346;2023-03-30T01:08:42;97792.64;;;13.43;65.46
71996;BME280;59862;47.732;7.346;2023-03-30T01:11:10;97773.25;;;13.31;66.12
71996;BME280;59862;47.732;7.346;2023-03-30T01:13:41;97765.66;;;13.17;68.46
71996;BME280;59862;47.732;7.346;2023-03-30T01:32:43;97740.69;;;13.26;71.39
71996;BME280;59862;47.732;7.346;2023-03-30T01:35:22;97720.91;;;13.16;71.69
71996;BME280;59862;47.732;7.346;2023-03-30T01:40:38;97734.78;;;13.13;73.38
71996;BME280;59862;47.732;7.346;2023-03-30T01:43:22;97740.88;;;13.05;73.45
71996;BME280;59862;47.732;7.346;2023-03-30T01:46:01;97739.91;;;13.02;73.93
71996;BME280;59862;47.732;7.346;2023-03-30T01:51:18;97736.08;;;13.00;73.02
71996;BME280;59862;47.732;7.346;2023-03-30T01:53:59;97725.62;;;13.01;72.95
71996;BME280;59862;47.732;7.346;2023-03-30T01:56:30;97705.94;;;12.94;73.01
71996;BME280;59862;47.732;7.346;2023-03-30T01:59:19;97691.13;;;13.01;73.30
71996;BME280;59862;47.732;7.346;2023-03-30T02:01:49;97683.54;;;12.87;71.60
71996;BME280;59862;47.732;7.346;2023-03-30T02:04:21;97674.84;;;12.85;69.22
71996;BME280;59862;47.732;7.346;2023-03-30T02:07:03;97659.92;;;12.89;69.10
71996;BME280;59862;47.732;7.346;2023-03-30T02:09:27;97654.77;;;13.01;68.46
71996;BME280;59862;47.732;7.346;2023-03-30T02:11:56;97644.86;;;13.08;68.36
71996;BME280;59862;47.732;7.346;2023-03-30T02:14:28;97629.09;;;13.18;68.59
71996;BME280;59862;47.732;7.346;2023-03-30T02:17:02;97632.40;;;13.26;67.35
71996;BME280;59862;47.732;7.346;2023-03-30T02:19:27;97637.14;;;13.44;66.23
71996;BME280;59862;47.732;7.346;2023-03-30T02:21:55;97633.58;;;13.63;64.52
71996;BME280;59862;47.732;7.346;2023-03-30T02:24:26;97633.52;;;13.83;64.58
71996;BME280;59862;47.732;7.346;2023-03-30T02:26:58;97633.38;;;13.93;63.60
71996;BME280;59862;47.732;7.346;2023-03-30T02:29:27;97635.45;;;14.20;62.37
71996;BME280;59862;47.732;7.346;2023-03-30T02:31:56;97629.09;;;14.30;62.25
71996;BME280;59862;47.732;7.346;2023-03-30T02:40:35;97632.29;;;14.67;60.52
71996;BME280;59862;47.732;7.346;2023-03-30T02:43:05;97630.72;;;14.84;59.85
71996;BME280;59862;47.732;7.346;2023-03-30T02:45:47;97615.72;;;14.88;59.76
71996;BME280;59862;47.732;7.346;2023-03-30T02:51:15;97605.06;;;15.09;58.73
71996;BME280;59862;47.732;7.346;2023-03-30T02:53:53;97601.30;;;15.10;59.21
71996;BME280;59862;47.732;7.346;2023-03-30T02:56:20;97598.39;;;15.11;58.62
71996;BME280;59862;47.732;7.346;2023-03-30T02:58:54;97597.76;;;15.09;59.27
71996;BME280;59862;47.732;7.346;2023-03-30T03:01:41;97596.41;;;15.09;58.75
71996;BME280;59862;47.732;7.346;2023-03-30T03:04:11;97592.44;;;15.12;59.25
71996;BME280;59862;47.732;7.346;2023-03-30T03:06:42;97591.78;;;15.16;58.52
71996;BME280;59862;47.732;7.346;2023-03-30T03:09:10;97584.07;;;15.20;58.23
71996;BME280;59862;47.732;7.346;2023-03-30T03:11:37;97584.75;;;15.34;57.41
71996;BME280;59862;47.732;7.346;2023-03-30T03:14:04;97588.28;;;15.34;57.55
71996;BME280;59862;47.732;7.346;2023-03-30T03:16:33;97599.41;;;15.35;58.12
71996;BME280;59862;47.732;7.346;2023-03-30T03:19:01;97591.66;;;15.30;58.49
71996;BME280;59862;47.732;7.346;2023-03-30T03:21:29;97591.34;;;15.19;58.59
71996;BME280;59862;47.732;7.346;2023-03-30T03:23:56;97587.03;;;15.12;58.58
71996;BME280;59862;47.732;7.346;2023-03-30T03:26:24;97589.28;;;15.06;58.98
71996;BME280;59862;47.732;7.346;2023-03-30T03:28:53;97585.05;;;15.01;58.89
71996;BME280;59862;47.732;7.346;2023-03-30T03:31:20;97585.61;;;15.00;58.70
71996;BME280;59862;47.732;7.346;2023-03-30T03:33:49;97581.61;;;14.94;59.05
71996;BME280;59862;47.732;7.346;2023-03-30T03:36:17;97579.99;;;14.86;59.16
71996;BME280;59862;47.732;7.346;2023-03-30T03:38:44;97588.23;;;14.82;59.49
71996;BME280;59862;47.732;7.346;2023-03-30T03:41:12;97582.66;;;14.77;59.75
71996;BME280;59862;47.732;7.346;2023-03-30T03:43:39;97571.99;;;14.73;59.67
71996;BME280;59862;47.732;7.346;2023-03-30T03:46:07;97571.10;;;14.70;59.80
71996;BME280;59862;47.732;7.346;2023-03-30T03:48:34;97558.72;;;14.72;59.60
71996;BME280;59862;47.732;7.346;2023-03-30T03:51:02;97552.25;;;14.73;59.58
71996;BME280;59862;47.732;7.346;2023-03-30T03:53:29;97548.52;;;14.74;59.26
71996;BME280;59862;47.732;7.346;2023-03-30T03:55:57;97546.42;;;14.76;59.28
71996;BME280;59862;47.732;7.346;2023-03-30T03:58:25;97546.94;;;14.75;59.44
71996;BME280;59862;47.732;7.346;2023-03-30T04:00:58;97539.91;;;14.74;59.38
71996;BME280;59862;47.732;7.346;2023-03-30T04:03:26;97539.39;;;14.75;59.38
71996;BME280;59862;47.732;7.346;2023-03-30T04:05:58;97534.64;;;14.79;59.01
71996;BME280;59862;47.732;7.346;2023-03-30T04:08:27;97536.59;;;14.81;59.13
71996;BME280;59862;47.732;7.346;2023-03-30T04:10:55;97538.44;;;14.87;58.72
71996;BME280;59862;47.732;7.346;2023-03-30T04:13:22;97535.51;;;14.89;58.53
71996;BME280;59862;47.732;7.346;2023-03-30T04:15:50;97534.24;;;14.91;58.65
71996;BME280;59862;47.732;7.346;2023-03-30T04:18:17;97536.34;;;14.89;58.71
71996;BME280;59862;47.732;7.346;2023-03-30T04:20:44;97553.30;;;14.87;58.69
71996;BME280;59862;47.732;7.346;2023-03-30T04:23:13;97547.58;;;14.86;58.87
71996;BME280;59862;47.732;7.346;2023-03-30T04:25:43;97545.19;;;14.87;58.75
71996;BME280;59862;47.732;7.346;2023-03-30T04:28:11;97551.20;;;14.89;58.78
71996;BME280;59862;47.732;7.346;2023-03-30T04:30:38;97564.91;;;14.88;58.98
71996;BME280;59862;47.732;7.346;2023-03-30T04:33:06;97575.20;;;14.88;59.09
71996;BME280;59862;47.732;7.346;2023-03-30T04:35:35;97578.73;;;14.89;58.55
71996;BME280;59862;47.732;7.346;2023-03-30T04:38:02;97572.06;;;14.91;59.28
71996;BME280;59862;47.732;7.346;2023-03-30T04:40:29;97569.80;;;14.88;59.06
71996;BME280;59862;47.732;7.346;2023-03-30T04:42:58;97564.53;;;14.84;59.71
71996;BME280;59862;47.732;7.346;2023-03-30T04:45:29;97559.19;;;14.78;59.35
71996;BME280;59862;47.732;7.346;2023-03-30T04:47:57;97579.53;;;14.80;59.73
71996;BME280;59862;47.732;7.346;2023-03-30T04:50:24;97583.81;;;14.88;59.43
71996;BME280;59862;47.732;7.346;2023-03-30T04:52:52;97579.30;;;14.82;60.51
71996;BME280;59862;47.732;7.346;2023-03-30T04:55:19;97568.83;;;14.67;62.12
71996;BME280;59862;47.732;7.346;2023-03-30T04:57:46;97570.93;;;14.50;61.31
71996;BME280;59862;47.732;7.346;2023-03-30T05:00:14;97580.98;;;14.36;62.40
71996;BME280;59862;47.732;7.346;2023-03-30T05:02:42;97575.11;;;14.23;62.98
71996;BME280;59862;47.732;7.346;2023-03-30T05:05:10;97581.38;;;14.17;64.84
71996;BME280;59862;47.732;7.346;2023-03-30T05:07:37;97558.06;;;14.14;64.63
71996;BME280;59862;47.732;7.346;2023-03-30T05:10:05;97532.98;;;14.07;65.39
71996;BME280;59862;47.732;7.346;2023-03-30T05:12:33;97544.52;;;14.05;66.64
71996;BME280;59862;47.732;7.346;2023-03-30T05:15:00;97571.46;;;13.89;65.96
71996;BME280;59862;47.732;7.346;2023-03-30T05:17:30;97596.25;;;13.89;66.10
71996;BME280;59862;47.732;7.346;2023-03-30T05:19:57;97624.61;;;13.76;66.87
71996;BME280;59862;47.732;7.346;2023-03-30T05:22:24;97618.02;;;13.65;69.67
71996;BME280;59862;47.732;7.346;2023-03-30T05:24:52;97608.24;;;13.35;70.51
71996;BME280;59862;47.732;7.346;2023-03-30T05:27:19;97602.27;;;13.07;72.47
71996;BME280;59862;47.732;7.346;2023-03-30T05:29:47;97619.34;;;12.90;70.97
71996;BME280;59862;47.732;7.346;2023-03-30T05:32:14;97626.59;;;12.83;70.35
71996;BME280;59862;47.732;7.346;2023-03-30T05:34:42;97620.50;;;13.18;65.79
71996;BME280;59862;47.732;7.346;2023-03-30T05:37:09;97626.36;;;13.44;64.86
71996;BME280;59862;47.732;7.346;2023-03-30T05:39:37;97627.77;;;13.66;63.19
71996;BME280;59862;47.732;7.346;2023-03-30T05:42:04;97624.40;;;13.84;61.38
71996;BME280;59862;47.732;7.346;2023-03-30T05:44:33;97644.88;;;13.98;60.92
71996;BME280;59862;47.732;7.346;2023-03-30T05:47:00;97648.16;;;14.06;60.67
71996;BME280;59862;47.732;7.346;2023-03-30T05:49:28;97663.07;;;14.15;59.03
71996;BME280;59862;47.732;7.346;2023-03-30T05:51:56;97662.30;;;14.24;58.21
71996;BME280;59862;47.732;7.346;2023-03-30T05:54:24;97664.59;;;14.27;57.96
71996;BME280;59862;47.732;7.346;2023-03-30T05:56:53;97676.13;;;14.25;58.69
71996;BME280;59862;47.732;7.346;2023-03-30T05:59:20;97690.52;;;14.28;58.12
71996;BME280;59862;47.732;7.346;2023-03-30T06:01:48;97690.62;;;14.37;57.34
71996;BME280;59862;47.732;7.346;2023-03-30T06:04:15;97683.33;;;14.44;56.50
71996;BME280;59862;47.732;7.346;2023-03-30T06:06:43;97681.75;;;14.46;56.95
71996;BME280;59862;47.732;7.346;2023-03-30T06:09:11;97687.50;;;14.56;56.67
71996;BME280;59862;47.732;7.346;2023-03-30T06:11:39;97698.53;;;14.54;57.39
71996;BME280;59862;47.732;7.346;2023-03-30T06:14:06;97699.52;;;14.44;57.35
71996;BME280;59862;47.732;7.346;2023-03-30T06:16:35;97712.09;;;14.41;58.17
71996;BME280;59862;47.732;7.346;2023-03-30T06:19:02;97698.36;;;14.42;57.67
71996;BME280;59862;47.732;7.346;2023-03-30T06:21:30;97694.38;;;14.52;57.44
71996;BME280;59862;47.732;7.346;2023-03-30T06:23:57;97700.48;;;14.56;57.34
71996;BME280;59862;47.732;7.346;2023-03-30T06:26:24;97704.59;;;14.65;57.38
71996;BME280;59862;47.732;7.346;2023-03-30T06:28:52;97713.05;;;14.75;56.86
71996;BME280;59862;47.732;7.346;2023-03-30T06:31:19;97717.80;;;14.80;56.56
71996;BME280;59862;47.732;7.346;2023-03-30T06:33:47;97718.83;;;14.85;56.78
71996;BME280;59862;47.732;7.346;2023-03-30T06:36:17;97710.88;;;14.90;56.27
71996;BME280;59862;47.732;7.346;2023-03-30T06:38:44;97708.92;;;14.88;56.53
71996;BME280;59862;47.732;7.346;2023-03-30T06:41:11;97710.59;;;14.89;56.79
71996;BME280;59862;47.732;7.346;2023-03-30T06:43:40;97715.54;;;14.92;57.10
71996;BME280;59862;47.732;7.346;2023-03-30T06:46:08;97725.96;;;14.89;57.09
71996;BME280;59862;47.732;7.346;2023-03-30T06:48:37;97732.34;;;14.85;57.38
71996;BME280;59862;47.732;7.346;2023-03-30T06:51:05;97734.66;;;14.75;57.66
71996;BME280;59862;47.732;7.346;2023-03-30T06:53:34;97730.80;;;14.80;58.02
71996;BME280;59862;47.732;7.346;2023-03-30T06:56:01;97746.20;;;14.73;58.07
71996;BME280;59862;47.732;7.346;2023-03-30T06:58:29;97756.52;;;14.67;58.38
71996;BME280;59862;47.732;7.346;2023-03-30T07:00:57;97735.94;;;14.66;58.53
71996;BME280;59862;47.732;7.346;2023-03-30T07:03:24;97718.97;;;14.59;58.58
71996;BME280;59862;47.732;7.346;2023-03-30T07:05:51;97743.42;;;14.49;59.10
71996;BME280;59862;47.732;7.346;2023-03-30T07:08:19;97762.39;;;14.51;59.84
71996;BME280;59862;47.732;7.346;2023-03-30T07:10:47;97775.41;;;14.45;59.58
71996;BME280;59862;47.732;7.346;2023-03-30T07:13:15;97789.52;;;14.47;59.77
71996;BME280;59862;47.732;7.346;2023-03-30T07:15:45;97792.22;;;14.47;59.66
71996;BME280;59862;47.732;7.346;2023-03-30T07:18:13;97798.55;;;14.50;59.88
71996;BME280;59862;47.732;7.346;2023-03-30T07:20:41;97798.30;;;14.58;59.75
71996;BME280;59862;47.732;7.346;2023-03-30T07:23:09;97798.08;;;14.60;59.69
71996;BME280;59862;47.732;7.346;2023-03-30T07:25:38;97790.33;;;14.54;60.17
71996;BME280;59862;47.732;7.346;2023-03-30T07:28:06;97768.73;;;14.54;60.23
71996;BME280;59862;47.732;7.346;2023-03-30T07:30:34;97773.75;;;14.66;59.99
71996;BME280;59862;47.732;7.346;2023-03-30T07:33:02;97791.68;;;14.54;60.29
71996;BME280;59862;47.732;7.346;2023-03-30T07:35:29;97792.95;;;14.45;60.75
71996;BME280;59862;47.732;7.346;2023-03-30T07:37:57;97796.70;;;14.44;60.94
71996;BME280;59862;47.732;7.346;2023-03-30T07:40:25;97806.45;;;14.45;60.76
71996;BME280;59862;47.732;7.346;2023-03-30T07:42:52;97827.38;;;14.63;60.73
71996;BME280;59862;47.732;7.346;2023-03-30T07:45:20;97818.25;;;14.64;60.26
71996;BME280;59862;47.732;7.346;2023-03-30T07:47:47;97818.31;;;14.66;60.89
71996;BME280;59862;47.732;7.346;2023-03-30T07:50:15;97806.91;;;14.86;60.23
71996;BME280;59862;47.732;7.346;2023-03-30T07:52:42;97817.34;;;15.05;59.48
71996;BME280;59862;47.732;7.346;2023-03-30T07:55:09;97808.38;;;15.27;59.03
71996;BME280;59862;47.732;7.346;2023-03-30T07:57:37;97810.05;;;15.43;58.77
71996;BME280;59862;47.732;7.346;2023-03-30T08:00:06;97818.70;;;15.83;57.82
71996;BME280;59862;47.732;7.346;2023-03-30T08:02:35;97822.80;;;16.01;56.88
71996;BME280;59862;47.732;7.346;2023-03-30T08:05:04;97828.89;;;15.81;57.12
71996;BME280;59862;47.732;7.346;2023-03-30T08:07:31;97841.94;;;15.50;57.90
71996;BME280;59862;47.732;7.346;2023-03-30T08:10:00;97863.36;;;14.85;59.78
71996;BME280;59862;47.732;7.346;2023-03-30T08:12:28;97862.26;;;14.29;62.10
71996;BME280;59862;47.732;7.346;2023-03-30T08:14:55;97857.69;;;13.84;63.80
71996;BME280;59862;47.732;7.346;2023-03-30T08:17:22;97862.63;;;13.60;65.66
71996;BME280;59862;47.732;7.346;2023-03-30T08:19:50;97865.06;;;13.23;67.86
71996;BME280;59862;47.732;7.346;2023-03-30T08:22:18;97857.73;;;12.86;70.05
71996;BME280;59862;47.732;7.346;2023-03-30T08:24:46;97869.02;;;12.39;72.94
71996;BME280;59862;47.732;7.346;2023-03-30T08:27:14;97879.80;;;12.00;74.53
71996;BME280;59862;47.732;7.346;2023-03-30T08:29:41;97884.09;;;11.63;77.54
71996;BME280;59862;47.732;7.346;2023-03-30T08:32:08;97869.19;;;11.50;77.66
71996;BME280;59862;47.732;7.346;2023-03-30T08:34:36;97869.19;;;11.50;77.66
71996;BME280;59862;47.732;7.346;2023-03-30T08:37:03;97864.27;;;11.64;78.13
71996;BME280;59862;47.732;7.346;2023-03-30T08:39:31;97862.22;;;11.87;77.06
71996;BME280;59862;47.732;7.346;2023-03-30T08:42:24;97862.22;;;11.87;77.06
71996;BME280;59862;47.732;7.346;2023-03-30T08:44:51;97857.45;;;12.10;77.08
71996;BME280;59862;47.732;7.346;2023-03-30T08:47:27;97862.38;;;12.41;75.98
71996;BME280;59862;47.732;7.346;2023-03-30T08:50:13;97869.14;;;12.65;74.67
71996;BME280;59862;47.732;7.346;2023-03-30T08:52:42;97877.24;;;12.95;73.49
71996;BME280;59862;47.732;7.346;2023-03-30T09:06:24;97894.03;;;16.87;61.59
71996;BME280;59862;47.732;7.346;2023-03-30T09:08:51;97897.35;;;16.71;59.85
71996;BME280;59862;47.732;7.346;2023-03-30T09:11:27;97897.09;;;16.05;61.48
71996;BME280;59862;47.732;7.346;2023-03-30T09:13:53;97890.37;;;15.74;63.06
71996;BME280;59862;47.732;7.346;2023-03-30T09:16:45;97892.41;;;15.63;63.44
71996;BME280;59862;47.732;7.346;2023-03-30T09:19:10;97897.81;;;15.41;63.20
71996;BME280;59862;47.732;7.346;2023-03-30T09:21:39;97889.78;;;15.50;63.35
71996;BME280;59862;47.732;7.346;2023-03-30T09:24:11;97891.19;;;15.59;63.76
71996;BME280;59862;47.732;7.346;2023-03-30T09:26:53;97893.84;;;15.50;62.67
71996;BME280;59862;47.732;7.346;2023-03-30T09:29:33;97898.94;;;15.27;63.44
71996;BME280;59862;47.732;7.346;2023-03-30T09:32:15;97905.78;;;15.51;63.73
71996;BME280;59862;47.732;7.346;2023-03-30T09:34:49;97907.23;;;15.54;62.02
71996;BME280;59862;47.732;7.346;2023-03-30T09:37:16;97920.45;;;15.68;61.69
71996;BME280;59862;47.732;7.346;2023-03-30T09:39:48;97916.36;;;15.90;61.11
71996;BME280;59862;47.732;7.346;2023-03-30T09:42:29;97925.12;;;16.17;60.68
71996;BME280;59862;47.732;7.346;2023-03-30T09:44:58;97941.14;;;16.68;59.11
71996;BME280;59862;47.732;7.346;2023-03-30T09:47:40;97945.81;;;16.45;59.49
71996;BME280;59862;47.732;7.346;2023-03-30T09:50:17;97942.20;;;16.02;61.23
71996;BME280;59862;47.732;7.346;2023-03-30T09:53:01;97946.88;;;16.04;61.03
71996;BME280;59862;47.732;7.346;2023-03-30T09:55:34;97943.55;;;15.86;61.65
71996;BME280;59862;47.732;7.346;2023-03-30T09:58:17;97941.52;;;16.22;60.43
71996;BME280;59862;47.732;7.346;2023-03-30T10:00:46;97953.91;;;16.36;59.59
71996;BME280;59862;47.732;7.346;2023-03-30T10:03:20;97949.29;;;16.77;59.03
71996;BME280;59862;47.732;7.346;2023-03-30T10:06:10;97962.71;;;16.90;58.49
71996;BME280;59862;47.732;7.346;2023-03-30T10:08:54;97970.87;;;16.25;59.28
71996;BME280;59862;47.732;7.346;2023-03-30T10:11:40;97973.41;;;15.89;60.20
71996;BME280;59862;47.732;7.346;2023-03-30T10:14:35;97975.81;;;15.50;61.53
71996;BME280;59862;47.732;7.346;2023-03-30T10:16:59;97984.34;;;15.41;62.21
71996;BME280;59862;47.732;7.346;2023-03-30T10:19:29;97985.53;;;15.58;61.13
71996;BME280;59862;47.732;7.346;2023-03-30T10:21:58;97988.78;;;15.51;61.57
71996;BME280;59862;47.732;7.346;2023-03-30T10:24:30;97975.55;;;15.58;61.43
71996;BME280;59862;47.732;7.346;2023-03-30T10:27:07;97977.50;;;15.32;62.38
71996;BME280;59862;47.732;7.346;2023-03-30T10:29:31;97986.08;;;15.22;63.01
71996;BME280;59862;47.732;7.346;2023-03-30T10:32:02;97994.84;;;15.11;63.83
71996;BME280;59862;47.732;7.346;2023-03-30T10:34:43;97993.20;;;14.90;64.29
71996;BME280;59862;47.732;7.346;2023-03-30T10:37:14;97996.48;;;14.57;64.71
71996;BME280;59862;47.732;7.346;2023-03-30T10:39:44;97995.03;;;14.41;65.82
71996;BME280;59862;47.732;7.346;2023-03-30T10:42:17;97993.78;;;14.31;68.26
71996;BME280;59862;47.732;7.346;2023-03-30T10:44:50;98002.17;;;13.82;70.09
71996;BME280;59862;47.732;7.346;2023-03-30T10:50:31;98022.81;;;13.25;73.76
71996;BME280;59862;47.732;7.346;2023-03-30T10:56:01;98022.03;;;13.14;74.21
71996;BME280;59862;47.732;7.346;2023-03-30T11:01:56;97993.50;;;13.09;72.13
71996;BME280;59862;47.732;7.346;2023-03-30T11:04:45;98047.53;;;13.35;72.64
71996;BME280;59862;47.732;7.346;2023-03-30T11:07:30;98047.97;;;13.05;74.74
71996;BME280;59862;47.732;7.346;2023-03-30T11:09:56;98037.34;;;12.69;74.89
71996;BME280;59862;47.732;7.346;2023-03-30T11:12:25;98023.97;;;12.44;76.28
71996;BME280;59862;47.732;7.346;2023-03-30T11:15:04;98006.25;;;12.39;78.67
71996;BME280;59862;47.732;7.346;2023-03-30T11:17:39;97996.37;;;12.35;78.18
71996;BME280;59862;47.732;7.346;2023-03-30T11:20:16;97996.37;;;12.35;78.18
71996;BME280;59862;47.732;7.346;2023-03-30T11:23:15;97999.65;;;12.58;78.01
71996;BME280;59862;47.732;7.346;2023-03-30T11:25:26;98008.03;;;12.87;76.46
71996;BME280;59862;47.732;7.346;2023-03-30T11:28:16;98010.52;;;12.99;75.05
71996;BME280;59862;47.732;7.346;2023-03-30T11:30:43;98008.39;;;13.05;75.80
71996;BME280;59862;47.732;7.346;2023-03-30T11:35:54;98001.08;;;12.99;75.81
71996;BME280;59862;47.732;7.346;2023-03-30T11:38:48;97998.94;;;12.88;76.43
71996;BME280;59862;47.732;7.346;2023-03-30T11:41:16;97996.63;;;13.02;76.98
71996;BME280;59862;47.732;7.346;2023-03-30T11:43:45;98008.47;;;13.18;76.10
71996;BME280;59862;47.732;7.346;2023-03-30T11:54:24;98016.92;;;13.32;74.62
71996;BME280;59862;47.732;7.346;2023-03-30T11:57:27;98006.14;;;13.32;74.12
71996;BME280;59862;47.732;7.346;2023-03-30T12:10:43;97989.80;;;17.51;58.74
71996;BME280;59862;47.732;7.346;2023-03-30T12:13:14;97994.55;;;16.52;58.60
71996;BME280;59862;47.732;7.346;2023-03-30T12:15:45;97981.78;;;15.97;60.28
71996;BME280;59862;47.732;7.346;2023-03-30T12:20:48;97977.16;;;15.15;61.15
71996;BME280;59862;47.732;7.346;2023-03-30T12:23:29;97980.67;;;15.73;60.26
71996;BME280;59862;47.732;7.346;2023-03-30T12:26:17;97966.09;;;16.36;58.90
71996;BME280;59862;47.732;7.346;2023-03-30T12:34:33;97944.66;;;18.60;52.24
71996;BME280;59862;47.732;7.346;2023-03-30T12:37:10;97962.38;;;20.14;47.10
71996;BME280;59862;47.732;7.346;2023-03-30T12:39:41;97931.48;;;19.38;47.05
71996;BME280;59862;47.732;7.346;2023-03-30T12:44:53;97922.91;;;21.19;43.70
71996;BME280;59862;47.732;7.346;2023-03-30T12:47:37;97939.34;;;21.43;43.01
71996;BME280;59862;47.732;7.346;2023-03-30T12:52:46;97947.69;;;21.14;43.06
71996;BME280;59862;47.732;7.346;2023-03-30T12:55:18;97919.05;;;21.36;43.24
71996;BME280;59862;47.732;7.346;2023-03-30T12:57:53;97907.53;;;20.74;43.74
71996;BME280;59862;47.732;7.346;2023-03-30T13:03:33;97880.27;;;21.12;43.07
71996;BME280;59862;47.732;7.346;2023-03-30T13:06:04;97874.64;;;20.64;43.73
71996;BME280;59862;47.732;7.346;2023-03-30T13:08:40;97871.70;;;21.26;42.78
71996;BME280;59862;47.732;7.346;2023-03-30T13:11:16;97870.03;;;21.25;42.41
71996;BME280;59862;47.732;7.346;2023-03-30T13:13:53;97865.61;;;22.20;40.67
71996;BME280;59862;47.732;7.346;2023-03-30T13:16:45;97856.89;;;21.67;40.71
71996;BME280;59862;47.732;7.346;2023-03-30T13:19:24;97866.36;;;21.14;41.99
71996;BME280;59862;47.732;7.346;2023-03-30T13:22:16;97849.98;;;22.13;39.71
71996;BME280;59862;47.732;7.346;2023-03-30T13:24:44;97850.72;;;22.75;39.05
71996;BME280;59862;47.732;7.346;2023-03-30T13:30:03;97851.87;;;21.83;38.84
71996;BME280;59862;47.732;7.346;2023-03-30T13:49:59;97863.55;;;22.37;35.08
71996;BME280;59862;47.732;7.346;2023-03-30T13:52:36;97850.05;;;22.99;33.88
71996;BME280;59862;47.732;7.346;2023-03-30T13:55:02;97854.02;;;22.77;31.96
71996;BME280;59862;47.732;7.346;2023-03-30T13:57:36;97863.16;;;22.55;32.05
71996;BME280;59862;47.732;7.346;2023-03-30T14:00:17;97859.66;;;21.72;33.15
71996;BME280;59862;47.732;7.346;2023-03-30T14:02:39;97854.83;;;21.07;33.98
71996;BME280;59862;47.732;7.346;2023-03-30T14:05:20;97857.44;;;20.11;34.99
71996;BME280;59862;47.732;7.346;2023-03-30T14:07:48;97852.69;;;19.74;36.66
71996;BME280;59862;47.732;7.346;2023-03-30T14:10:19;97849.64;;;20.01;37.10
71996;BME280;59862;47.732;7.346;2023-03-30T14:12:55;97850.04;;;21.41;35.28
71996;BME280;59862;47.732;7.346;2023-03-30T14:17:57;97855.09;;;22.36;34.39
71996;BME280;59862;47.732;7.346;2023-03-30T14:20:29;97853.13;;;23.13;33.22
71996;BME280;59862;47.732;7.346;2023-03-30T14:22:56;97869.33;;;24.57;31.46
71996;BME280;59862;47.732;7.346;2023-03-30T14:25:28;97882.70;;;25.83;29.41
71996;BME280;59862;47.732;7.346;2023-03-30T14:28:01;97879.94;;;23.80;31.99
71996;BME280;59862;47.732;7.346;2023-03-30T14:30:27;97867.87;;;23.69;32.11
71996;BME280;59862;47.732;7.346;2023-03-30T14:33:11;97859.16;;;23.15;32.81
71996;BME280;59862;47.732;7.346;2023-03-30T14:35:49;97864.06;;;23.87;32.24
71996;BME280;59862;47.732;7.346;2023-03-30T14:38:30;97862.95;;;21.72;35.67
71996;BME280;59862;47.732;7.346;2023-03-30T14:40:59;97862.95;;;20.00;39.05
71996;BME280;59862;47.732;7.346;2023-03-30T14:43:29;97854.13;;;19.22;41.37
71996;BME280;59862;47.732;7.346;2023-03-30T14:46:03;97853.27;;;18.45;43.08
71996;BME280;59862;47.732;7.346;2023-03-30T14:48:38;97855.27;;;18.17;44.33
71996;BME280;59862;47.732;7.346;2023-03-30T14:51:24;97841.89;;;17.81;44.83
71996;BME280;59862;47.732;7.346;2023-03-30T14:53:53;97825.42;;;17.73;45.84
71996;BME280;59862;47.732;7.346;2023-03-30T14:56:23;97823.72;;;17.81;45.75
71996;BME280;59862;47.732;7.346;2023-03-30T14:58:51;97811.16;;;17.78;46.50
71996;BME280;59862;47.732;7.346;2023-03-30T15:01:26;97802.78;;;17.59;46.33
71996;BME280;59862;47.732;7.346;2023-03-30T15:04:08;97800.86;;;17.48;47.16
71996;BME280;59862;47.732;7.346;2023-03-30T15:06:36;97806.91;;;17.61;47.23
71996;BME280;59862;47.732;7.346;2023-03-30T15:09:07;97804.73;;;18.04;45.70
71996;BME280;59862;47.732;7.346;2023-03-30T15:11:36;97798.20;;;18.14;45.37
71996;BME280;59862;47.732;7.346;2023-03-30T15:14:11;97802.97;;;18.22;43.93